createdAt,value
2017-06-29T00:01:36.896Z,3.00
2017-06-29T00:04:04.398Z,3.17
2017-06-29T00:06:31.877Z,3.27
2017-06-29T00:08:59.378Z,3.30
2017-06-29T00:11:26.895Z,2.30
2017-06-29T00:13:54.423Z,2.90
2017-06-29T00:16:22.305Z,3.20
2017-06-29T00:18:51.185Z,3.20
2017-06-29T00:21:19.081Z,2.80
2017-06-29T00:23:46.569Z,2.80
2017-06-29T00:26:14.083Z,3.07
2017-06-29T00:28:41.978Z,2.60
2017-06-29T00:31:09.467Z,2.43
2017-06-29T00:33:38.915Z,2.57
2017-06-29T00:36:06.402Z,3.10
2017-06-29T00:38:33.899Z,2.80
2017-06-29T00:41:01.369Z,2.90
2017-06-29T00:43:28.871Z,2.50
2017-06-29T00:45:56.344Z,2.73
2017-06-29T00:48:25.774Z,2.33
2017-06-29T00:50:53.237Z,2.90
2017-06-29T00:53:20.721Z,2.63
2017-06-29T00:55:48.205Z,2.70
2017-06-29T00:58:15.694Z,3.27
2017-06-29T01:00:43.170Z,2.90
2017-06-29T01:03:10.682Z,2.87
2017-06-29T01:05:38.154Z,3.30
2017-06-29T01:08:07.589Z,3.33
2017-06-29T01:10:36.026Z,3.20
2017-06-29T01:13:03.831Z,3.10
2017-06-29T01:15:31.702Z,3.10
2017-06-29T01:17:59.590Z,3.60
2017-06-29T01:20:29.029Z,3.00
2017-06-29T01:22:56.497Z,3.33
2017-06-29T01:25:24.071Z,2.97
2017-06-29T01:27:51.542Z,3.90
2017-06-29T01:30:19.041Z,2.60
2017-06-29T01:32:46.509Z,3.60
2017-06-29T01:35:14.326Z,3.30
2017-06-29T01:37:41.802Z,3.33
2017-06-29T01:40:09.267Z,2.90
2017-06-29T01:42:36.762Z,3.17
2017-06-29T01:45:04.233Z,3.43
2017-06-29T01:47:31.721Z,3.00
2017-06-29T01:49:59.202Z,3.20
2017-06-29T01:52:26.722Z,3.40
2017-06-29T01:54:54.589Z,3.07
2017-06-29T01:57:22.552Z,3.40
2017-06-29T01:59:50.520Z,3.33
2017-06-29T02:02:18.936Z,3.50
2017-06-29T02:04:46.430Z,3.30
2017-06-29T02:07:13.905Z,3.10
2017-06-29T02:09:41.398Z,3.20
2017-06-29T02:12:08.873Z,2.80
2017-06-29T02:14:36.369Z,3.17
2017-06-29T02:17:03.842Z,3.10
2017-06-29T02:19:31.734Z,3.13
2017-06-29T02:21:59.200Z,3.30
2017-06-29T02:24:26.719Z,3.67
2017-06-29T02:26:54.580Z,3.13
2017-06-29T02:29:22.078Z,3.60
2017-06-29T02:31:49.553Z,3.10
2017-06-29T02:34:17.054Z,3.00
2017-06-29T02:36:45.818Z,2.90
2017-06-29T02:39:14.701Z,2.83
2017-06-29T02:41:42.182Z,3.10
2017-06-29T02:44:09.716Z,2.37
2017-06-29T02:46:37.198Z,2.20
2017-06-29T02:49:05.086Z,2.50
2017-06-29T02:51:32.625Z,3.10
2017-06-29T02:54:00.514Z,2.70
2017-06-29T02:56:28.054Z,2.53
2017-06-29T02:58:55.945Z,2.70
2017-06-29T03:01:23.414Z,2.60
2017-06-29T03:03:50.906Z,2.23
2017-06-29T03:06:18.406Z,2.60
2017-06-29T03:08:45.901Z,2.40
2017-06-29T03:11:13.373Z,2.10
2017-06-29T03:13:40.880Z,2.13
2017-06-29T03:16:08.351Z,2.30
2017-06-29T03:18:35.839Z,2.30
2017-06-29T03:21:04.250Z,2.60
2017-06-29T03:23:32.139Z,1.93
2017-06-29T03:25:59.614Z,1.93
2017-06-29T03:28:27.102Z,2.00
2017-06-29T03:30:54.610Z,2.20
2017-06-29T03:33:22.097Z,1.97
2017-06-29T03:35:49.573Z,2.30
2017-06-29T03:38:17.062Z,2.00
2017-06-29T03:40:45.881Z,2.30
2017-06-29T03:43:13.366Z,2.87
2017-06-29T03:45:41.738Z,2.70
2017-06-29T03:48:09.229Z,2.10
2017-06-29T03:50:36.697Z,2.43
2017-06-29T03:53:04.193Z,2.50
2017-06-29T03:55:32.589Z,2.60
2017-06-29T03:58:00.072Z,2.13
2017-06-29T04:00:27.542Z,2.13
2017-06-29T04:02:55.426Z,2.37
2017-06-29T04:05:22.902Z,2.00
2017-06-29T04:07:50.390Z,2.17
2017-06-29T04:10:17.856Z,2.13
2017-06-29T04:12:45.345Z,2.07
2017-06-29T04:15:13.213Z,1.60
2017-06-29T04:17:41.167Z,1.77
2017-06-29T04:20:09.137Z,2.17
2017-06-29T04:22:37.026Z,1.70
2017-06-29T04:25:04.616Z,1.90
2017-06-29T04:27:33.005Z,1.70
2017-06-29T04:30:00.509Z,1.50
2017-06-29T04:32:28.463Z,1.93
2017-06-29T04:34:56.438Z,2.27
2017-06-29T04:37:24.325Z,1.73
2017-06-29T04:39:51.793Z,1.77
2017-06-29T04:42:19.289Z,1.60
2017-06-29T04:44:46.756Z,1.80
2017-06-29T04:47:14.334Z,1.60
2017-06-29T04:49:42.201Z,1.47
2017-06-29T04:52:10.162Z,1.53
2017-06-29T04:54:38.130Z,1.60
2017-06-29T04:57:06.989Z,1.40
2017-06-29T04:59:34.456Z,1.90
2017-06-29T05:02:01.954Z,1.87
2017-06-29T05:04:29.489Z,1.93
2017-06-29T05:06:57.469Z,1.50
2017-06-29T05:09:25.428Z,1.70
2017-06-29T05:11:53.317Z,1.67
2017-06-29T05:14:20.785Z,1.70
2017-06-29T05:16:48.269Z,2.00
2017-06-29T05:19:16.634Z,1.80
2017-06-29T05:21:44.141Z,1.47
2017-06-29T05:24:11.620Z,2.00
2017-06-29T05:26:39.201Z,1.40
2017-06-29T05:29:06.728Z,1.63
2017-06-29T05:31:34.681Z,1.80
2017-06-29T05:34:02.154Z,1.97
2017-06-29T05:36:30.033Z,2.00
2017-06-29T05:38:57.513Z,1.80
2017-06-29T05:41:25.020Z,1.80
2017-06-29T05:43:53.808Z,1.93
2017-06-29T05:46:21.697Z,2.23
2017-06-29T05:48:49.169Z,1.93
2017-06-29T05:51:17.001Z,1.93
2017-06-29T05:53:44.870Z,2.43
2017-06-29T05:56:12.764Z,2.57
2017-06-29T05:58:42.233Z,1.97
2017-06-29T06:01:10.102Z,2.57
2017-06-29T06:03:37.985Z,4.70
2017-06-29T06:06:05.489Z,15.57
2017-06-29T06:08:32.985Z,16.80
2017-06-29T06:11:00.854Z,18.20
2017-06-29T06:13:29.025Z,19.50
2017-06-29T06:15:56.893Z,19.37
2017-06-29T06:18:24.774Z,19.70
2017-06-29T06:20:53.158Z,20.73
2017-06-29T06:23:20.693Z,24.43
2017-06-29T06:25:48.702Z,27.93
2017-06-29T06:28:17.140Z,30.57
2017-06-29T06:30:46.977Z,28.50
2017-06-29T06:33:14.514Z,32.07
2017-06-29T06:35:42.653Z,33.50
2017-06-29T06:38:10.151Z,36.00
2017-06-29T06:40:38.047Z,39.37
2017-06-29T06:43:05.563Z,36.20
2017-06-29T06:45:33.547Z,45.20
2017-06-29T06:48:01.044Z,51.50
2017-06-29T06:50:28.521Z,50.30
2017-06-29T06:52:56.025Z,56.63
2017-06-29T06:55:24.449Z,54.13
2017-06-29T06:57:52.045Z,53.40
2017-06-29T07:00:19.912Z,52.40
2017-06-29T07:02:48.064Z,53.63
2017-06-29T07:05:15.544Z,55.23
2017-06-29T07:07:43.416Z,54.03
2017-06-29T07:10:11.310Z,56.20
2017-06-29T07:12:38.824Z,52.87
2017-06-29T07:15:08.669Z,55.70
2017-06-29T07:17:36.147Z,58.03
2017-06-29T07:20:03.650Z,55.73
2017-06-29T07:22:31.127Z,56.57
2017-06-29T07:24:58.969Z,56.80
2017-06-29T07:27:26.845Z,55.10
2017-06-29T07:29:54.814Z,60.13
2017-06-29T07:32:22.702Z,58.50
2017-06-29T07:34:50.233Z,57.97
2017-06-29T07:37:18.210Z,55.50
2017-06-29T07:39:46.174Z,55.57
2017-06-29T07:42:14.066Z,55.60
2017-06-29T07:44:41.598Z,55.33
2017-06-29T07:47:11.430Z,55.63
2017-06-29T07:49:38.977Z,55.90
2017-06-29T07:52:06.844Z,53.90
2017-06-29T07:54:34.384Z,54.17
2017-06-29T07:57:02.356Z,56.90
2017-06-29T07:59:30.533Z,55.33
2017-06-29T08:01:59.296Z,53.40
2017-06-29T08:04:26.774Z,51.93
2017-06-29T08:06:56.625Z,52.93
2017-06-29T08:09:24.145Z,52.57
2017-06-29T08:11:53.156Z,52.97
2017-06-29T08:14:20.706Z,51.43
2017-06-29T08:16:48.575Z,51.90
2017-06-29T08:19:16.529Z,49.40
2017-06-29T08:21:44.396Z,51.60
2017-06-29T08:24:12.564Z,50.87
2017-06-29T08:26:40.532Z,50.23
2017-06-29T08:29:08.013Z,48.30
2017-06-29T08:31:35.558Z,51.23
2017-06-29T08:34:03.433Z,49.40
2017-06-29T08:36:32.040Z,49.77
2017-06-29T08:38:59.509Z,49.60
2017-06-29T08:41:26.985Z,48.83
2017-06-29T08:43:54.515Z,24.20
2017-06-29T08:46:21.997Z,12.33
2017-06-29T08:48:49.489Z,7.90
2017-06-29T08:51:17.405Z,8.13
2017-06-29T08:53:44.889Z,13.40
2017-06-29T08:56:13.600Z,20.00
2017-06-29T08:58:41.566Z,25.43
2017-06-29T09:01:09.537Z,44.30
2017-06-29T09:03:37.501Z,49.40
2017-06-29T09:06:05.156Z,54.10
2017-06-29T09:08:33.480Z,54.83
2017-06-29T09:11:00.993Z,56.77
2017-06-29T09:13:29.929Z,59.97
2017-06-29T09:15:57.487Z,68.67
2017-06-29T09:18:24.961Z,77.47
2017-06-29T09:20:52.764Z,86.90
2017-06-29T09:23:21.089Z,90.77
2017-06-29T09:25:49.544Z,94.10
2017-06-29T09:28:17.052Z,98.67
2017-06-29T09:30:44.589Z,99.03
2017-06-29T09:33:12.098Z,94.20
2017-06-29T09:35:39.991Z,99.80
2017-06-29T09:38:07.477Z,95.10
2017-06-29T09:40:35.301Z,96.00
2017-06-29T09:43:02.841Z,97.43
2017-06-29T09:45:30.717Z,103.87
2017-06-29T09:47:58.676Z,114.17
2017-06-29T09:50:26.641Z,123.03
2017-06-29T09:52:54.619Z,123.37
2017-06-29T09:55:22.613Z,125.30
2017-06-29T09:57:50.142Z,120.73
2017-06-29T10:00:18.047Z,125.30
2017-06-29T10:02:45.561Z,126.80
2017-06-29T10:05:13.536Z,130.00
2017-06-29T10:07:41.413Z,124.57
2017-06-29T10:10:11.250Z,124.53
2017-06-29T10:12:38.729Z,127.27
2017-06-29T10:15:06.333Z,129.00
2017-06-29T10:17:34.296Z,133.17
2017-06-29T10:20:02.281Z,142.00
2017-06-29T10:22:30.155Z,146.57
2017-06-29T10:24:57.653Z,149.63
2017-06-29T10:27:25.144Z,148.83
2017-06-29T10:29:53.041Z,145.60
2017-06-29T10:32:20.525Z,145.90
2017-06-29T10:34:49.997Z,139.83
2017-06-29T10:37:17.537Z,145.57
2017-06-29T10:39:47.356Z,129.57
2017-06-29T10:42:14.837Z,136.93
2017-06-29T10:44:42.356Z,136.90
2017-06-29T10:47:11.206Z,133.80
2017-06-29T10:49:38.809Z,131.93
2017-06-29T10:52:06.697Z,129.10
2017-06-29T10:54:34.193Z,128.87
2017-06-29T10:57:01.672Z,128.80
2017-06-29T10:59:29.240Z,125.30
2017-06-29T11:01:57.214Z,114.80
2017-06-29T11:04:24.733Z,99.33
2017-06-29T11:06:52.212Z,107.17
2017-06-29T11:09:19.789Z,106.83
2017-06-29T11:11:47.767Z,104.60
2017-06-29T11:14:16.033Z,103.50
2017-06-29T11:16:43.996Z,102.40
2017-06-29T11:19:11.881Z,102.40
2017-06-29T11:21:39.383Z,101.17
2017-06-29T11:24:06.885Z,101.47
2017-06-29T11:26:35.053Z,99.57
2017-06-29T11:29:02.929Z,98.60
2017-06-29T11:31:30.880Z,91.33
2017-06-29T11:33:58.786Z,91.77
2017-06-29T11:36:27.234Z,91.50
2017-06-29T11:38:57.065Z,87.23
2017-06-29T11:41:24.636Z,90.20
2017-06-29T11:43:52.159Z,102.50
2017-06-29T11:46:21.997Z,117.77
2017-06-29T11:48:49.528Z,129.17
2017-06-29T11:51:17.704Z,136.27
2017-06-29T11:53:45.673Z,126.27
2017-06-29T11:56:13.553Z,123.10
2017-06-29T11:58:42.433Z,112.80
2017-06-29T12:01:11.257Z,115.20
2017-06-29T12:03:39.853Z,112.30
2017-06-29T12:06:08.285Z,123.07
2017-06-29T12:08:35.777Z,135.93
2017-06-29T12:11:03.281Z,161.17
2017-06-29T12:13:30.856Z,152.33
2017-06-29T12:15:59.125Z,151.70
2017-06-29T12:18:27.019Z,147.20
2017-06-29T12:20:54.558Z,149.37
2017-06-29T12:23:22.453Z,163.27
2017-06-29T12:25:49.938Z,183.90
2017-06-29T12:28:17.533Z,182.00
2017-06-29T12:30:45.418Z,161.43
2017-06-29T12:33:12.960Z,80.67
2017-06-29T12:35:40.832Z,63.10
2017-06-29T12:38:08.796Z,85.43
2017-06-29T12:40:36.765Z,118.77
2017-06-29T12:43:04.670Z,121.10
2017-06-29T12:45:32.188Z,125.20
2017-06-29T12:48:00.098Z,123.27
2017-06-29T12:50:27.615Z,116.90
2017-06-29T12:52:57.454Z,117.90
2017-06-29T12:55:24.942Z,113.77
2017-06-29T12:57:52.445Z,110.73
2017-06-29T13:00:20.405Z,106.57
2017-06-29T13:02:47.969Z,110.20
2017-06-29T13:05:16.781Z,108.50
2017-06-29T13:07:45.241Z,107.37
2017-06-29T13:10:13.205Z,106.17
2017-06-29T13:12:41.165Z,105.60
2017-06-29T13:15:09.049Z,108.30
2017-06-29T13:17:36.901Z,105.17
2017-06-29T13:20:04.466Z,104.30
2017-06-29T13:22:32.433Z,103.47
2017-06-29T13:25:00.341Z,100.97
2017-06-29T13:27:28.762Z,99.77
2017-06-29T13:29:56.262Z,96.00
2017-06-29T13:32:23.789Z,97.40
2017-06-29T13:34:51.756Z,100.87
2017-06-29T13:37:19.724Z,96.47
2017-06-29T13:39:47.618Z,96.10
2017-06-29T13:42:15.096Z,95.67
2017-06-29T13:44:44.560Z,94.17
2017-06-29T13:47:12.521Z,97.77
2017-06-29T13:49:40.489Z,94.20
2017-06-29T13:52:08.461Z,94.97
2017-06-29T13:54:38.306Z,88.90
2017-06-29T13:57:05.833Z,88.63
2017-06-29T13:59:35.720Z,89.60
2017-06-29T14:02:03.195Z,89.23
2017-06-29T14:04:31.085Z,88.30
2017-06-29T14:06:58.663Z,91.27
2017-06-29T14:09:26.183Z,87.87
2017-06-29T14:11:54.157Z,85.47
2017-06-29T14:14:22.054Z,85.70
2017-06-29T14:16:49.575Z,84.47
2017-06-29T14:19:17.466Z,84.70
2017-06-29T14:21:44.949Z,83.50
2017-06-29T14:24:12.453Z,86.30
2017-06-29T14:26:40.332Z,82.73
2017-06-29T14:29:08.289Z,80.30
2017-06-29T14:31:36.259Z,77.50
2017-06-29T14:34:06.092Z,80.30
2017-06-29T14:36:33.649Z,80.33
2017-06-29T14:39:01.185Z,79.17
2017-06-29T14:41:28.745Z,79.33
2017-06-29T14:43:58.700Z,78.47
2017-06-29T14:46:27.136Z,79.17
2017-06-29T14:48:55.105Z,77.90
2017-06-29T14:51:23.074Z,77.80
2017-06-29T14:53:50.977Z,78.07
2017-06-29T14:56:18.456Z,75.90
2017-06-29T14:58:46.056Z,75.23
2017-06-29T15:01:14.876Z,77.43
2017-06-29T15:03:43.325Z,74.10
2017-06-29T15:06:11.295Z,72.63
2017-06-29T15:08:39.265Z,74.77
2017-06-29T15:11:07.557Z,74.50
2017-06-29T15:13:35.102Z,73.47
2017-06-29T15:16:03.065Z,69.60
2017-06-29T15:18:31.038Z,70.80
2017-06-29T15:20:58.925Z,70.20
2017-06-29T15:23:26.453Z,72.80
2017-06-29T15:25:54.342Z,68.77
2017-06-29T15:28:21.836Z,70.37
2017-06-29T15:30:49.337Z,71.17
2017-06-29T15:33:17.224Z,69.20
2017-06-29T15:35:44.763Z,68.83
2017-06-29T15:38:12.645Z,67.70
2017-06-29T15:40:40.127Z,66.87
2017-06-29T15:43:09.575Z,68.33
2017-06-29T15:45:37.046Z,46.50
2017-06-29T15:48:04.614Z,33.27
2017-06-29T15:50:32.569Z,29.17
2017-06-29T15:53:00.461Z,23.50
2017-06-29T15:55:27.997Z,17.17
2017-06-29T15:57:57.829Z,20.10
2017-06-29T16:00:25.309Z,40.33
2017-06-29T16:02:53.066Z,43.40
2017-06-29T16:05:20.536Z,47.23
2017-06-29T16:07:48.013Z,55.27
2017-06-29T16:10:15.604Z,66.13
2017-06-29T16:12:43.576Z,71.17
2017-06-29T16:15:11.537Z,79.20
2017-06-29T16:17:39.505Z,78.93
2017-06-29T16:20:08.320Z,76.70
2017-06-29T16:22:35.856Z,73.90
2017-06-29T16:25:03.818Z,76.03
2017-06-29T16:27:31.789Z,74.20
2017-06-29T16:29:59.767Z,74.77
2017-06-29T16:32:27.654Z,80.50
2017-06-29T16:34:55.136Z,88.13
2017-06-29T16:37:22.944Z,100.63
2017-06-29T16:39:50.927Z,111.50
2017-06-29T16:42:18.876Z,105.80
2017-06-29T16:44:46.781Z,102.53
2017-06-29T16:47:14.312Z,104.53
2017-06-29T16:49:42.609Z,104.07
2017-06-29T16:52:10.141Z,77.13
2017-06-29T16:54:38.949Z,87.33
2017-06-29T16:57:06.441Z,93.37
2017-06-29T16:59:34.869Z,89.63
2017-06-29T17:02:04.702Z,91.43
2017-06-29T17:04:32.232Z,88.07
2017-06-29T17:07:00.110Z,90.37
2017-06-29T17:09:28.065Z,90.57
2017-06-29T17:11:55.953Z,90.03
2017-06-29T17:14:23.797Z,87.40
2017-06-29T17:16:51.670Z,86.30
2017-06-29T17:19:19.637Z,85.47
2017-06-29T17:21:47.542Z,79.30
2017-06-29T17:24:15.058Z,83.37
2017-06-29T17:26:44.907Z,81.17
2017-06-29T17:29:12.429Z,61.07
2017-06-29T17:31:40.397Z,45.87
2017-06-29T17:34:07.965Z,39.20
2017-06-29T17:36:35.921Z,38.30
2017-06-29T17:39:03.813Z,36.73
2017-06-29T17:41:31.345Z,36.50
2017-06-29T17:43:59.216Z,39.30
2017-06-29T17:46:26.773Z,44.07
2017-06-29T17:48:54.741Z,49.70
2017-06-29T17:51:22.633Z,57.13
2017-06-29T17:53:50.165Z,65.03
2017-06-29T17:56:18.057Z,64.97
2017-06-29T17:58:45.589Z,74.03
2017-06-29T18:01:15.429Z,69.20
2017-06-29T18:03:42.961Z,76.03
2017-06-29T18:06:12.793Z,80.90
2017-06-29T18:08:40.290Z,80.97
2017-06-29T18:11:07.778Z,71.90
2017-06-29T18:13:35.345Z,53.70
2017-06-29T18:16:05.221Z,35.97
2017-06-29T18:18:33.637Z,35.87
2017-06-29T18:21:01.500Z,36.37
2017-06-29T18:23:29.061Z,35.70
2017-06-29T18:25:57.029Z,48.07
2017-06-29T18:28:25.201Z,45.80
2017-06-29T18:30:53.073Z,45.77
2017-06-29T18:33:21.037Z,43.80
2017-06-29T18:35:48.943Z,45.13
2017-06-29T18:38:16.431Z,44.17
2017-06-29T18:40:45.081Z,46.43
2017-06-29T18:43:12.567Z,41.37
2017-06-29T18:45:40.064Z,40.67
2017-06-29T18:48:07.963Z,42.90
2017-06-29T18:50:35.492Z,40.50
2017-06-29T18:53:03.769Z,39.03
2017-06-29T18:55:31.652Z,39.53
2017-06-29T18:57:59.148Z,40.40
2017-06-29T19:00:26.657Z,39.43
2017-06-29T19:02:54.158Z,39.27
2017-06-29T19:05:21.993Z,39.60
2017-06-29T19:07:49.493Z,37.30
2017-06-29T19:10:17.008Z,37.23
2017-06-29T19:12:44.515Z,36.07
2017-06-29T19:15:13.017Z,34.57
2017-06-29T19:17:42.888Z,35.30
2017-06-29T19:20:11.329Z,35.10
2017-06-29T19:22:38.812Z,34.10
2017-06-29T19:25:06.480Z,36.50
2017-06-29T19:27:33.985Z,38.03
2017-06-29T19:30:03.085Z,39.17
2017-06-29T19:32:31.017Z,38.73
2017-06-29T19:34:58.517Z,37.63
2017-06-29T19:37:26.030Z,38.60
2017-06-29T19:39:53.544Z,39.13
2017-06-29T19:42:21.393Z,38.20
2017-06-29T19:44:49.318Z,38.90
2017-06-29T19:47:16.875Z,38.93
2017-06-29T19:49:44.386Z,27.60
2017-06-29T19:52:11.967Z,32.60
2017-06-29T19:54:39.797Z,32.03
2017-06-29T19:57:08.680Z,34.03
2017-06-29T19:59:36.561Z,33.40
2017-06-29T20:02:04.463Z,35.00
2017-06-29T20:04:31.953Z,35.60
2017-06-29T20:06:59.741Z,35.83
2017-06-29T20:09:27.720Z,36.10
2017-06-29T20:11:55.193Z,35.13
2017-06-29T20:14:22.693Z,35.60
2017-06-29T20:16:50.189Z,37.00
2017-06-29T20:19:17.677Z,36.83
2017-06-29T20:21:45.185Z,38.00
2017-06-29T20:24:13.075Z,38.57
2017-06-29T20:26:40.593Z,38.90
2017-06-29T20:29:08.080Z,37.70
2017-06-29T20:31:35.993Z,39.13
2017-06-29T20:34:03.538Z,39.10
2017-06-29T20:36:31.078Z,39.40
2017-06-29T20:38:58.558Z,37.97
2017-06-29T20:41:26.392Z,37.03
2017-06-29T20:43:53.885Z,37.47
2017-06-29T20:46:21.383Z,37.40
2017-06-29T20:48:48.976Z,36.97
2017-06-29T20:51:16.465Z,36.23
2017-06-29T20:53:43.965Z,35.67
2017-06-29T20:56:11.945Z,36.13
2017-06-29T20:58:39.813Z,36.40
2017-06-29T21:01:07.321Z,36.87
2017-06-29T21:03:34.825Z,36.40
2017-06-29T21:06:03.003Z,38.30
2017-06-29T21:08:30.496Z,36.47
2017-06-29T21:10:58.006Z,33.40
2017-06-29T21:13:25.910Z,32.40
2017-06-29T21:15:53.449Z,28.77
2017-06-29T21:18:20.932Z,28.40
2017-06-29T21:20:48.433Z,25.10
2017-06-29T21:23:16.421Z,24.70
2017-06-29T21:25:44.330Z,22.27
2017-06-29T21:28:12.783Z,21.90
2017-06-29T21:30:40.292Z,21.13
2017-06-29T21:33:08.094Z,21.07
2017-06-29T21:35:35.578Z,18.70
2017-06-29T21:38:03.064Z,17.87
2017-06-29T21:40:30.586Z,15.50
2017-06-29T21:42:58.072Z,15.73
2017-06-29T21:45:25.586Z,15.90
2017-06-29T21:47:53.061Z,16.23
2017-06-29T21:50:20.569Z,16.60
2017-06-29T21:52:48.058Z,14.90
2017-06-29T21:55:15.574Z,15.40
2017-06-29T21:57:43.074Z,15.07
2017-06-29T22:00:10.580Z,10.03
2017-06-29T22:02:38.108Z,8.10
2017-06-29T22:05:05.615Z,8.00
2017-06-29T22:07:33.504Z,10.23
2017-06-29T22:10:01.521Z,11.60
2017-06-29T22:12:29.022Z,10.53
2017-06-29T22:14:57.206Z,9.70
2017-06-29T22:17:24.765Z,9.93
2017-06-29T22:19:52.248Z,10.00
2017-06-29T22:22:19.744Z,10.37
2017-06-29T22:24:47.258Z,10.63
2017-06-29T22:27:15.109Z,9.70
2017-06-29T22:29:42.612Z,9.40
2017-06-29T22:32:11.042Z,9.50
2017-06-29T22:34:40.545Z,10.07
2017-06-29T22:37:08.032Z,9.50
2017-06-29T22:39:35.552Z,9.70
2017-06-29T22:42:04.364Z,10.40
2017-06-29T22:44:31.889Z,9.90
2017-06-29T22:47:00.689Z,9.10
2017-06-29T22:49:28.181Z,9.73
2017-06-29T22:51:55.685Z,8.13
2017-06-29T22:54:23.573Z,9.10
2017-06-29T22:56:51.117Z,9.10
2017-06-29T22:59:19.001Z,9.30
2017-06-29T23:01:46.541Z,9.23
2017-06-29T23:04:16.566Z,8.87
2017-06-29T23:06:44.109Z,8.60
2017-06-29T23:09:11.973Z,8.40
2017-06-29T23:11:41.801Z,8.60
2017-06-29T23:14:09.677Z,7.87
2017-06-29T23:16:37.172Z,7.63
2017-06-29T23:19:04.639Z,7.17
2017-06-29T23:21:33.217Z,7.93
2017-06-29T23:24:00.694Z,7.23
2017-06-29T23:26:28.165Z,7.10
2017-06-29T23:28:57.053Z,5.93
2017-06-29T23:31:25.869Z,5.50
2017-06-29T23:33:54.305Z,6.10
2017-06-29T23:36:21.876Z,5.67
2017-06-29T23:38:49.642Z,5.57
2017-06-29T23:41:17.609Z,4.97
2017-06-29T23:43:45.477Z,4.37
2017-06-29T23:46:13.361Z,4.47
2017-06-29T23:48:40.900Z,3.87
2017-06-29T23:51:08.785Z,3.53
2017-06-29T23:53:36.283Z,2.53
2017-06-29T23:56:04.012Z,2.60
2017-06-29T23:58:31.546Z,2.70
